createdAt,value
2018-12-05T00:00:11.711Z,2.60
2018-12-05T00:01:10.632Z,2.61
2018-12-05T00:02:10.653Z,2.53
2018-12-05T00:03:10.616Z,2.57
2018-12-05T00:04:10.599Z,2.57
2018-12-05T00:05:10.587Z,2.56
2018-12-05T00:06:10.599Z,2.56
2018-12-05T00:07:10.573Z,2.53
2018-12-05T00:08:10.583Z,2.54
2018-12-05T00:09:10.547Z,2.56
2018-12-05T00:10:10.533Z,2.56
2018-12-05T00:11:10.523Z,2.57
2018-12-05T00:12:10.511Z,2.53
2018-12-05T00:13:10.523Z,2.53
2018-12-05T00:14:10.493Z,2.59
2018-12-05T00:15:10.497Z,2.59
2018-12-05T00:16:10.470Z,2.61
2018-12-05T00:17:10.472Z,2.53
2018-12-05T00:18:10.472Z,2.54
2018-12-05T00:19:10.473Z,2.53
2018-12-05T00:20:10.438Z,2.57
2018-12-05T00:21:10.416Z,2.52
2018-12-05T00:22:10.500Z,2.57
2018-12-05T00:23:10.410Z,2.54
2018-12-05T00:24:10.438Z,2.52
2018-12-05T00:25:10.389Z,2.56
2018-12-05T00:26:10.372Z,2.52
2018-12-05T00:27:10.361Z,2.59
2018-12-05T00:28:10.349Z,2.49
2018-12-05T00:29:10.366Z,2.60
2018-12-05T00:30:10.328Z,2.57
2018-12-05T00:31:10.345Z,2.53
2018-12-05T00:32:10.304Z,2.53
2018-12-05T00:33:10.290Z,2.56
2018-12-05T00:34:10.305Z,2.39
2018-12-05T00:35:10.278Z,2.49
2018-12-05T00:36:10.267Z,2.49
2018-12-05T00:37:10.252Z,2.48
2018-12-05T00:38:10.241Z,2.54
2018-12-05T00:39:10.247Z,2.53
2018-12-05T00:40:10.219Z,2.53
2018-12-05T00:41:10.206Z,2.54
2018-12-05T00:42:10.202Z,2.52
2018-12-05T00:43:10.191Z,2.49
2018-12-05T00:44:10.194Z,2.49
2018-12-05T00:45:10.184Z,2.54
2018-12-05T00:46:10.164Z,2.53
2018-12-05T00:47:10.146Z,2.52
2018-12-05T00:48:10.144Z,2.52
2018-12-05T00:49:10.158Z,2.46
2018-12-05T00:50:10.118Z,2.39
2018-12-05T00:51:10.110Z,2.52
2018-12-05T00:52:10.098Z,2.46
2018-12-05T00:53:10.083Z,2.56
2018-12-05T00:54:10.121Z,2.48
2018-12-05T00:55:10.076Z,2.53
2018-12-05T00:56:10.060Z,2.53
2018-12-05T00:57:10.040Z,2.57
2018-12-05T00:58:10.033Z,2.54
2018-12-05T00:59:10.024Z,2.45
2018-12-05T01:00:10.032Z,2.56
2018-12-05T01:01:09.996Z,2.36
2018-12-05T01:02:09.990Z,2.54
2018-12-05T01:03:09.978Z,2.46
2018-12-05T01:04:09.970Z,2.49
2018-12-05T01:05:09.981Z,2.35
2018-12-05T01:06:09.962Z,2.45
2018-12-05T01:07:09.937Z,2.48
2018-12-05T01:08:09.926Z,2.38
2018-12-05T01:09:09.916Z,2.42
2018-12-05T01:10:09.924Z,2.41
2018-12-05T01:11:09.906Z,2.39
2018-12-05T01:12:09.896Z,2.39
2018-12-05T01:13:09.873Z,2.41
2018-12-05T01:14:09.863Z,2.39
2018-12-05T01:15:09.880Z,2.39
2018-12-05T01:16:09.844Z,2.41
2018-12-05T01:17:09.838Z,2.42
2018-12-05T01:18:09.846Z,2.41
2018-12-05T01:19:09.812Z,2.34
2018-12-05T01:20:09.815Z,2.43
2018-12-05T01:21:09.797Z,2.38
2018-12-05T01:22:09.792Z,2.25
2018-12-05T01:23:09.770Z,2.28
2018-12-05T01:24:09.756Z,2.35
2018-12-05T01:25:09.764Z,2.31
2018-12-05T01:26:09.738Z,2.28
2018-12-05T01:27:09.739Z,2.25
2018-12-05T01:28:09.734Z,2.30
2018-12-05T01:29:09.715Z,2.28
2018-12-05T01:30:09.724Z,2.34
2018-12-05T01:31:17.636Z,2.27
2018-12-05T01:32:18.682Z,2.28
2018-12-05T01:33:09.669Z,2.23
2018-12-05T01:34:18.703Z,2.28
2018-12-05T01:35:09.670Z,2.28
2018-12-05T01:36:09.634Z,2.28
2018-12-05T01:37:09.623Z,2.28
2018-12-05T01:38:09.617Z,2.25
2018-12-05T01:39:09.609Z,2.31
2018-12-05T01:40:09.597Z,2.27
2018-12-05T01:41:09.607Z,2.30
2018-12-05T01:42:09.571Z,2.30
2018-12-05T01:43:09.564Z,2.25
2018-12-05T01:44:09.549Z,2.31
2018-12-05T01:45:09.537Z,2.25
2018-12-05T01:46:09.549Z,2.24
2018-12-05T01:47:09.559Z,2.28
2018-12-05T01:48:09.511Z,2.25
2018-12-05T01:49:09.498Z,2.41
2018-12-05T01:50:09.503Z,2.38
2018-12-05T01:51:09.503Z,2.39
2018-12-05T01:52:09.467Z,2.42
2018-12-05T01:53:09.457Z,2.43
2018-12-05T01:54:09.445Z,2.38
2018-12-05T01:55:09.435Z,2.39
2018-12-05T01:56:09.445Z,2.42
2018-12-05T01:57:09.419Z,2.41
2018-12-05T01:58:09.421Z,2.42
2018-12-05T01:59:09.392Z,2.45
2018-12-05T02:00:09.383Z,2.52
2018-12-05T02:01:09.391Z,2.56
2018-12-05T02:02:09.462Z,2.54
2018-12-05T02:03:09.357Z,2.53
2018-12-05T02:04:09.369Z,2.46
2018-12-05T02:05:09.351Z,2.49
2018-12-05T02:06:09.373Z,2.52
2018-12-05T02:07:09.311Z,2.46
2018-12-05T02:08:09.308Z,2.52
2018-12-05T02:09:09.297Z,2.49
2018-12-05T02:10:09.288Z,2.46
2018-12-05T02:11:09.298Z,2.53
2018-12-05T02:12:09.259Z,2.52
2018-12-05T02:13:09.248Z,2.46
2018-12-05T02:14:09.289Z,2.49
2018-12-05T02:15:09.231Z,2.48
2018-12-05T02:16:09.247Z,2.43
2018-12-05T02:17:09.209Z,2.38
2018-12-05T02:18:09.199Z,2.43
2018-12-05T02:19:09.193Z,2.35
2018-12-05T02:20:09.177Z,2.39
2018-12-05T02:21:16.477Z,2.35
2018-12-05T02:22:09.173Z,2.45
2018-12-05T02:23:09.147Z,2.35
2018-12-05T02:24:09.135Z,2.39
2018-12-05T02:25:17.300Z,2.38
2018-12-05T02:26:09.114Z,2.45
2018-12-05T02:27:09.119Z,2.43
2018-12-05T02:28:09.089Z,2.46
2018-12-05T02:29:09.079Z,2.53
2018-12-05T02:30:09.081Z,2.38
2018-12-05T02:31:09.058Z,2.53
2018-12-05T02:32:09.067Z,2.36
2018-12-05T02:33:09.047Z,2.42
2018-12-05T02:34:09.031Z,2.39
2018-12-05T02:35:09.027Z,2.38
2018-12-05T02:36:09.016Z,2.34
2018-12-05T02:37:09.019Z,2.38
2018-12-05T02:38:08.983Z,2.39
2018-12-05T02:39:08.986Z,2.42
2018-12-05T02:40:08.984Z,2.41
2018-12-05T02:41:08.967Z,2.42
2018-12-05T02:42:08.969Z,2.38
2018-12-05T02:43:08.945Z,2.34
2018-12-05T02:44:08.925Z,2.28
2018-12-05T02:45:08.922Z,2.27
2018-12-05T02:46:08.908Z,2.27
2018-12-05T02:47:08.914Z,2.31
2018-12-05T02:48:08.892Z,2.31
2018-12-05T02:50:10.026Z,2.30
2018-12-05T02:51:08.857Z,2.38
2018-12-05T02:52:08.899Z,2.34
2018-12-05T02:53:08.832Z,2.39
2018-12-05T02:54:08.822Z,2.41
2018-12-05T02:55:08.818Z,2.39
2018-12-05T02:56:08.804Z,2.35
2018-12-05T02:57:08.810Z,2.39
2018-12-05T02:58:08.787Z,2.41
2018-12-05T02:59:08.799Z,2.36
2018-12-05T03:00:08.764Z,2.36
2018-12-05T03:01:08.749Z,2.35
2018-12-05T03:02:08.767Z,2.38
2018-12-05T03:03:08.724Z,2.41
2018-12-05T03:04:08.711Z,2.38
2018-12-05T03:05:08.703Z,2.43
2018-12-05T03:06:08.689Z,2.34
2018-12-05T03:07:08.777Z,2.35
2018-12-05T03:08:08.689Z,2.31
2018-12-05T03:09:08.662Z,2.31
2018-12-05T03:10:08.670Z,2.31
2018-12-05T03:11:08.655Z,2.28
2018-12-05T03:12:08.637Z,2.23
2018-12-05T03:13:08.645Z,2.28
2018-12-05T03:14:08.615Z,2.25
2018-12-05T03:15:08.600Z,2.23
2018-12-05T03:16:08.634Z,2.24
2018-12-05T03:17:08.577Z,2.20
2018-12-05T03:18:08.597Z,2.23
2018-12-05T03:19:08.557Z,2.24
2018-12-05T03:20:08.548Z,2.17
2018-12-05T03:21:08.540Z,2.10
2018-12-05T03:22:08.525Z,2.09
2018-12-05T03:23:08.535Z,2.12
2018-12-05T03:24:08.500Z,2.12
2018-12-05T03:25:08.494Z,2.12
2018-12-05T03:26:08.489Z,2.14
2018-12-05T03:27:08.471Z,2.14
2018-12-05T03:28:08.475Z,2.16
2018-12-05T03:29:08.464Z,2.05
2018-12-05T03:30:08.441Z,2.09
2018-12-05T03:31:08.438Z,2.03
2018-12-05T03:32:08.436Z,2.00
2018-12-05T03:33:08.438Z,2.06
2018-12-05T03:34:08.403Z,2.02
2018-12-05T03:35:08.389Z,2.02
2018-12-05T03:36:08.385Z,2.03
2018-12-05T03:37:08.384Z,2.05
2018-12-05T03:38:08.381Z,2.09
2018-12-05T03:39:08.346Z,1.93
2018-12-05T03:40:08.349Z,2.02
2018-12-05T03:41:08.342Z,2.02
2018-12-05T03:42:08.317Z,1.93
2018-12-05T03:43:08.323Z,2.06
2018-12-05T03:44:08.303Z,1.93
2018-12-05T03:45:08.283Z,1.91
2018-12-05T03:46:08.279Z,1.98
2018-12-05T03:47:08.283Z,1.91
2018-12-05T03:48:08.287Z,2.00
2018-12-05T03:49:08.244Z,1.90
2018-12-05T03:50:08.229Z,2.02
2018-12-05T03:51:08.220Z,1.93
2018-12-05T03:52:08.209Z,2.00
2018-12-05T03:53:08.207Z,1.88
2018-12-05T03:54:08.217Z,1.99
2018-12-05T03:55:08.187Z,1.95
2018-12-05T03:56:08.167Z,1.87
2018-12-05T03:57:08.161Z,1.91
2018-12-05T03:58:08.147Z,1.90
2018-12-05T03:59:08.155Z,1.87
2018-12-05T04:00:08.133Z,1.87
2018-12-05T04:01:08.127Z,1.87
2018-12-05T04:02:08.106Z,1.80
2018-12-05T04:03:08.095Z,1.81
2018-12-05T04:04:08.117Z,1.77
2018-12-05T04:05:08.075Z,1.86
2018-12-05T04:06:08.074Z,1.87
2018-12-05T04:07:08.060Z,1.87
2018-12-05T04:08:08.116Z,1.87
2018-12-05T04:09:08.109Z,1.88
2018-12-05T04:10:08.033Z,1.88
2018-12-05T04:11:08.021Z,1.81
2018-12-05T04:12:08.004Z,1.90
2018-12-05T04:13:07.987Z,1.90
2018-12-05T04:14:08.010Z,1.80
2018-12-05T04:15:07.967Z,1.93
2018-12-05T04:16:07.961Z,1.93
2018-12-05T04:17:07.948Z,1.77
2018-12-05T04:18:07.946Z,1.88
2018-12-05T04:19:07.947Z,1.83
2018-12-05T04:20:07.930Z,1.87
2018-12-05T04:21:07.908Z,1.87
2018-12-05T04:22:07.911Z,1.80
2018-12-05T04:23:07.959Z,1.87
2018-12-05T04:24:07.906Z,1.80
2018-12-05T04:25:07.870Z,1.77
2018-12-05T04:26:07.857Z,1.80
2018-12-05T04:27:07.856Z,1.77
2018-12-05T04:28:07.832Z,1.80
2018-12-05T04:29:07.829Z,1.72
2018-12-05T04:30:07.834Z,1.76
2018-12-05T04:31:07.804Z,1.77
2018-12-05T04:32:07.788Z,1.73
2018-12-05T04:33:07.781Z,1.80
2018-12-05T04:34:07.798Z,1.81
2018-12-05T04:35:07.772Z,1.81
2018-12-05T04:36:07.762Z,1.83
2018-12-05T04:37:07.739Z,1.77
2018-12-05T04:38:07.728Z,1.72
2018-12-05T04:39:07.730Z,1.73
2018-12-05T04:40:07.724Z,1.73
2018-12-05T04:41:07.697Z,1.72
2018-12-05T04:42:07.686Z,1.73
2018-12-05T04:43:07.674Z,1.69
2018-12-05T04:44:07.683Z,1.72
2018-12-05T04:45:07.715Z,1.72
2018-12-05T04:46:07.642Z,1.77
2018-12-05T04:47:07.634Z,1.86
2018-12-05T04:48:07.623Z,1.77
2018-12-05T04:49:07.613Z,1.81
2018-12-05T04:50:07.635Z,1.73
2018-12-05T04:51:07.603Z,1.77
2018-12-05T04:52:07.580Z,1.76
2018-12-05T04:53:07.584Z,1.73
2018-12-05T04:54:16.828Z,1.70
2018-12-05T04:55:07.620Z,1.77
2018-12-05T04:56:07.569Z,1.76
2018-12-05T04:57:07.546Z,1.80
2018-12-05T04:58:07.520Z,1.79
2018-12-05T04:59:07.514Z,1.73
2018-12-05T05:00:07.525Z,1.76
2018-12-05T05:01:16.408Z,1.70
2018-12-05T05:02:07.473Z,1.63
2018-12-05T05:03:07.462Z,1.68
2018-12-05T05:04:07.460Z,1.60
2018-12-05T05:05:07.451Z,1.66
2018-12-05T05:06:07.469Z,1.59
2018-12-05T05:07:07.452Z,1.63
2018-12-05T05:08:07.412Z,1.68
2018-12-05T05:09:07.402Z,1.62
2018-12-05T05:10:07.404Z,1.60
2018-12-05T05:11:07.411Z,1.63
2018-12-05T05:12:07.370Z,1.68
2018-12-05T05:13:07.366Z,1.63
2018-12-05T05:14:07.355Z,1.62
2018-12-05T05:15:07.344Z,1.63
2018-12-05T05:16:07.348Z,1.62
2018-12-05T05:17:07.316Z,1.66
2018-12-05T05:18:07.306Z,1.66
2018-12-05T05:19:07.304Z,1.68
2018-12-05T05:20:07.302Z,1.62
2018-12-05T05:21:07.323Z,1.60
2018-12-05T05:22:07.279Z,1.63
2018-12-05T05:23:07.263Z,1.65
2018-12-05T05:24:07.248Z,1.60
2018-12-05T05:25:07.230Z,1.60
2018-12-05T05:26:07.251Z,1.59
2018-12-05T05:27:07.215Z,1.63
2018-12-05T05:28:07.213Z,1.60
2018-12-05T05:29:07.216Z,1.60
2018-12-05T05:30:07.184Z,1.55
2018-12-05T05:31:07.192Z,1.58
2018-12-05T05:32:07.164Z,1.62
2018-12-05T05:33:07.153Z,1.65
2018-12-05T05:34:07.151Z,1.51
2018-12-05T05:35:07.180Z,1.60
2018-12-05T05:36:07.187Z,1.59
2018-12-05T05:37:07.109Z,1.52
2018-12-05T05:38:07.843Z,1.60
2018-12-05T05:39:07.090Z,1.48
2018-12-05T05:40:07.073Z,1.60
2018-12-05T05:41:07.080Z,1.48
2018-12-05T05:42:07.063Z,1.59
2018-12-05T05:43:07.042Z,1.59
2018-12-05T05:44:07.032Z,1.55
2018-12-05T05:45:07.028Z,1.54
2018-12-05T05:46:07.042Z,1.59
2018-12-05T05:47:07.000Z,1.60
2018-12-05T05:48:06.995Z,1.59
2018-12-05T05:49:06.987Z,1.65
2018-12-05T05:50:06.971Z,1.63
2018-12-05T05:51:07.009Z,1.65
2018-12-05T05:52:06.948Z,1.62
2018-12-05T05:53:06.943Z,1.70
2018-12-05T05:54:06.927Z,1.65
2018-12-05T05:55:06.929Z,1.70
2018-12-05T05:56:06.909Z,1.72
2018-12-05T05:57:06.925Z,1.81
2018-12-05T05:58:06.890Z,1.79
2018-12-05T05:59:06.888Z,1.68
2018-12-05T06:00:06.866Z,1.69
2018-12-05T06:01:06.871Z,1.66
2018-12-05T06:02:06.873Z,1.69
2018-12-05T06:03:06.851Z,1.76
2018-12-05T06:04:06.835Z,1.73
2018-12-05T06:05:06.814Z,1.77
2018-12-05T06:06:06.804Z,1.79
2018-12-05T06:07:06.823Z,1.72
2018-12-05T06:08:06.805Z,1.79
2018-12-05T06:09:06.776Z,1.76
2018-12-05T06:10:06.770Z,1.77
2018-12-05T06:11:06.749Z,1.86
2018-12-05T06:12:06.823Z,1.88
2018-12-05T06:13:06.726Z,1.77
2018-12-05T06:14:06.726Z,1.87
2018-12-05T06:15:06.716Z,1.84
2018-12-05T06:16:06.706Z,1.80
2018-12-05T06:17:06.702Z,1.90
2018-12-05T06:18:06.678Z,1.87
2018-12-05T06:19:06.664Z,1.87
2018-12-05T06:20:06.664Z,1.81
2018-12-05T06:21:06.672Z,1.80
2018-12-05T06:22:06.683Z,1.90
2018-12-05T06:23:06.630Z,1.80
2018-12-05T06:24:06.617Z,1.83
2018-12-05T06:25:06.604Z,1.86
2018-12-05T06:26:06.602Z,1.84
2018-12-05T06:27:06.690Z,1.87
2018-12-05T06:28:06.572Z,1.83
2018-12-05T06:29:06.565Z,1.87
2018-12-05T06:30:06.557Z,1.86
2018-12-05T06:31:06.545Z,1.72
2018-12-05T06:32:06.558Z,1.81
2018-12-05T06:33:06.547Z,1.79
2018-12-05T06:34:06.542Z,1.73
2018-12-05T06:35:06.510Z,1.73
2018-12-05T06:36:06.501Z,1.84
2018-12-05T06:37:06.500Z,1.88
2018-12-05T06:38:06.486Z,1.90
2018-12-05T06:39:06.456Z,1.99
2018-12-05T06:40:06.453Z,1.83
2018-12-05T06:41:06.435Z,1.91
2018-12-05T06:42:06.426Z,1.93
2018-12-05T06:43:06.448Z,1.90
2018-12-05T06:44:06.418Z,1.80
2018-12-05T06:45:06.400Z,1.77
2018-12-05T06:46:06.444Z,1.80
2018-12-05T06:47:06.374Z,1.76
2018-12-05T06:48:06.394Z,1.81
2018-12-05T06:49:06.368Z,1.79
2018-12-05T06:50:06.352Z,1.79
2018-12-05T06:51:06.331Z,1.73
2018-12-05T06:52:06.322Z,1.79
2018-12-05T06:53:06.337Z,1.79
2018-12-05T06:54:06.298Z,1.80
2018-12-05T06:55:06.298Z,1.84
2018-12-05T06:56:06.358Z,1.88
2018-12-05T06:57:06.281Z,1.87
2018-12-05T06:58:06.271Z,1.80
2018-12-05T06:59:06.252Z,1.76
2018-12-05T07:00:06.245Z,1.81
2018-12-05T07:01:06.422Z,1.80
2018-12-05T07:02:06.212Z,1.73
2018-12-05T07:03:06.253Z,1.80
2018-12-05T07:04:06.201Z,1.84
2018-12-05T07:05:06.191Z,1.79
2018-12-05T07:06:06.191Z,1.72
2018-12-05T07:07:06.175Z,1.81
2018-12-05T07:08:06.188Z,1.76
2018-12-05T07:09:06.147Z,1.72
2018-12-05T07:10:06.140Z,1.79
2018-12-05T07:11:06.132Z,1.76
2018-12-05T07:12:06.135Z,1.69
2018-12-05T07:13:06.121Z,1.79
2018-12-05T07:14:06.097Z,1.68
2018-12-05T07:15:06.083Z,1.66
2018-12-05T07:16:06.074Z,1.76
2018-12-05T07:17:06.059Z,1.73
2018-12-05T07:18:06.117Z,1.66
2018-12-05T07:19:06.046Z,1.72
2018-12-05T07:20:06.033Z,1.65
2018-12-05T07:21:06.019Z,1.69
2018-12-05T07:22:06.015Z,1.72
2018-12-05T07:23:06.007Z,1.65
2018-12-05T07:24:06.023Z,1.65
2018-12-05T07:25:05.988Z,1.63
2018-12-05T07:26:05.964Z,1.65
2018-12-05T07:27:05.970Z,1.62
2018-12-05T07:28:05.959Z,1.68
2018-12-05T07:29:05.970Z,1.60
2018-12-05T07:30:05.933Z,1.66
2018-12-05T07:31:05.927Z,1.59
2018-12-05T07:32:05.908Z,1.62
2018-12-05T07:33:05.903Z,1.62
2018-12-05T07:34:05.906Z,1.68
2018-12-05T07:35:05.884Z,1.69
2018-12-05T07:36:05.869Z,1.63
2018-12-05T07:37:05.867Z,1.69
2018-12-05T07:38:05.845Z,1.70
2018-12-05T07:39:05.859Z,1.73
2018-12-05T07:40:05.906Z,1.79
2018-12-05T07:41:05.837Z,1.81
2018-12-05T07:42:05.830Z,1.81
2018-12-05T07:43:05.793Z,1.76
2018-12-05T07:44:05.824Z,1.79
2018-12-05T07:45:05.792Z,1.77
2018-12-05T07:46:05.766Z,1.81
2018-12-05T07:47:05.755Z,1.84
2018-12-05T07:48:05.740Z,1.83
2018-12-05T07:49:05.751Z,1.88
2018-12-05T07:50:05.717Z,1.77
2018-12-05T07:51:05.707Z,1.91
2018-12-05T07:52:05.699Z,1.86
2018-12-05T07:53:05.683Z,1.83
2018-12-05T07:54:05.815Z,1.88
2018-12-05T07:55:05.668Z,1.87
2018-12-05T07:56:05.655Z,1.86
2018-12-05T07:57:05.642Z,1.98
2018-12-05T07:58:05.638Z,1.91
2018-12-05T07:59:05.662Z,1.98
2018-12-05T08:00:05.624Z,1.91
2018-12-05T08:01:05.606Z,2.02
2018-12-05T08:02:05.601Z,2.06
2018-12-05T08:03:05.586Z,2.07
2018-12-05T08:04:05.604Z,2.10
2018-12-05T08:05:05.591Z,2.10
2018-12-05T08:06:05.563Z,2.14
2018-12-05T08:07:05.533Z,2.12
2018-12-05T08:08:05.526Z,2.05
2018-12-05T08:09:05.532Z,2.10
2018-12-05T08:10:05.536Z,2.16
2018-12-05T08:11:05.523Z,2.14
2018-12-05T08:12:05.483Z,2.17
2018-12-05T08:13:05.476Z,2.14
2018-12-05T08:14:06.629Z,2.17
2018-12-05T08:15:05.475Z,2.10
2018-12-05T08:16:05.444Z,2.17
2018-12-05T08:17:05.434Z,2.10
2018-12-05T08:18:05.425Z,2.10
2018-12-05T08:19:05.431Z,2.09
2018-12-05T08:20:05.417Z,2.23
2018-12-05T08:21:05.397Z,2.17
2018-12-05T08:22:05.380Z,2.21
2018-12-05T08:23:05.384Z,2.25
2018-12-05T08:24:05.369Z,2.30
2018-12-05T08:25:05.435Z,2.28
2018-12-05T08:26:05.336Z,2.31
2018-12-05T08:27:05.333Z,2.39
2018-12-05T08:28:05.803Z,2.43
2018-12-05T08:29:05.395Z,2.38
2018-12-05T08:30:05.319Z,2.42
2018-12-05T08:31:05.284Z,2.41
2018-12-05T08:32:05.521Z,2.41
2018-12-05T08:33:05.263Z,2.43
2018-12-05T08:34:05.259Z,2.52
2018-12-05T08:35:05.283Z,2.52
2018-12-05T08:36:05.245Z,2.48
2018-12-05T08:37:05.225Z,2.53
2018-12-05T08:38:05.224Z,2.49
2018-12-05T08:39:05.199Z,2.52
2018-12-05T08:40:05.218Z,2.52
2018-12-05T08:41:05.196Z,2.52
2018-12-05T08:42:05.170Z,2.49
2018-12-05T08:43:05.161Z,2.53
2018-12-05T08:44:05.163Z,2.67
2018-12-05T08:45:05.171Z,2.67
2018-12-05T08:46:05.141Z,2.67
2018-12-05T08:47:05.117Z,2.72
2018-12-05T08:48:05.118Z,2.75
2018-12-05T08:49:05.102Z,2.72
2018-12-05T08:50:05.104Z,2.81
2018-12-05T08:51:05.075Z,2.74
2018-12-05T08:52:05.092Z,2.79
2018-12-05T08:53:05.052Z,2.87
2018-12-05T08:54:05.056Z,2.95
2018-12-05T08:55:05.087Z,2.90
2018-12-05T08:56:05.061Z,2.93
2018-12-05T08:57:05.034Z,3.05
2018-12-05T08:58:05.038Z,3.05
2018-12-05T08:59:04.997Z,3.10
2018-12-05T09:00:05.005Z,3.05
2018-12-05T09:01:04.973Z,3.13
2018-12-05T09:02:04.974Z,3.08
2018-12-05T09:03:04.955Z,3.18
2018-12-05T09:04:04.957Z,3.20
2018-12-05T09:05:04.952Z,3.18
2018-12-05T09:06:04.915Z,3.32
2018-12-05T09:07:04.911Z,3.36
2018-12-05T09:08:04.897Z,3.42
2018-12-05T09:09:04.919Z,3.33
2018-12-05T09:10:04.927Z,3.29
2018-12-05T09:11:04.902Z,3.40
2018-12-05T09:12:04.873Z,3.47
2018-12-05T09:13:04.892Z,3.51
2018-12-05T09:14:04.926Z,3.48
2018-12-05T09:15:04.842Z,3.58
2018-12-05T09:16:04.829Z,3.58
2018-12-05T09:17:04.805Z,3.52
2018-12-05T09:18:04.793Z,3.57
2018-12-05T09:19:04.785Z,3.54
2018-12-05T09:20:04.805Z,3.62
2018-12-05T09:21:04.775Z,3.65
2018-12-05T09:22:04.753Z,3.62
2018-12-05T09:23:04.821Z,3.65
2018-12-05T09:24:04.730Z,3.75
2018-12-05T09:25:04.745Z,3.80
2018-12-05T09:26:04.736Z,3.75
2018-12-05T09:27:04.704Z,3.76
2018-12-05T09:28:04.725Z,3.88
2018-12-05T09:29:04.689Z,3.90
2018-12-05T09:30:04.686Z,3.96
2018-12-05T09:31:04.667Z,3.88
2018-12-05T09:32:04.649Z,3.94
2018-12-05T09:33:04.642Z,3.96
2018-12-05T09:34:04.625Z,3.91
2018-12-05T09:35:04.655Z,4.06
2018-12-05T09:36:04.603Z,4.11
2018-12-05T09:37:04.593Z,4.14
2018-12-05T09:38:04.581Z,4.15
2018-12-05T09:39:04.586Z,4.15
2018-12-05T09:40:04.561Z,4.26
2018-12-05T09:41:04.575Z,4.27
2018-12-05T09:42:04.539Z,4.27
2018-12-05T09:43:04.528Z,4.30
2018-12-05T09:44:04.521Z,4.32
2018-12-05T09:45:04.530Z,4.32
2018-12-05T09:46:04.545Z,4.24
2018-12-05T09:47:04.490Z,4.24
2018-12-05T09:48:04.481Z,4.27
2018-12-05T09:49:04.466Z,4.29
2018-12-05T09:50:04.466Z,4.32
2018-12-05T09:51:04.465Z,4.36
2018-12-05T09:52:04.441Z,4.41
2018-12-05T09:53:04.425Z,4.41
2018-12-05T09:54:04.437Z,4.41
2018-12-05T09:55:04.407Z,4.41
2018-12-05T09:56:04.419Z,4.36
2018-12-05T09:57:04.387Z,4.41
2018-12-05T09:58:04.384Z,4.47
2018-12-05T09:59:04.354Z,4.47
2018-12-05T10:00:04.359Z,4.42
2018-12-05T10:01:04.366Z,4.58
2018-12-05T10:02:04.339Z,4.66
2018-12-05T10:03:04.317Z,4.69
2018-12-05T10:04:04.323Z,4.72
2018-12-05T10:05:04.294Z,4.77
2018-12-05T10:06:04.316Z,4.73
2018-12-05T10:07:04.280Z,4.77
2018-12-05T10:08:04.276Z,4.78
2018-12-05T10:09:04.257Z,4.84
2018-12-05T10:10:04.247Z,4.80
2018-12-05T10:11:04.269Z,4.77
2018-12-05T10:12:04.230Z,4.84
2018-12-05T10:13:04.215Z,4.84
2018-12-05T10:14:04.204Z,4.80
2018-12-05T10:15:04.194Z,4.82
2018-12-05T10:16:04.211Z,4.97
2018-12-05T10:17:04.170Z,4.92
2018-12-05T10:18:04.159Z,5.02
2018-12-05T10:19:04.149Z,5.02
2018-12-05T10:20:04.153Z,5.02
2018-12-05T10:21:04.145Z,5.09
2018-12-05T10:22:04.117Z,5.07
2018-12-05T10:23:04.112Z,5.10
2018-12-05T10:24:04.124Z,5.12
2018-12-05T10:25:04.149Z,5.15
2018-12-05T10:26:04.111Z,5.12
2018-12-05T10:27:04.071Z,5.15
2018-12-05T10:28:04.061Z,5.18
2018-12-05T10:29:04.073Z,5.15
2018-12-05T10:30:04.035Z,5.15
2018-12-05T10:31:04.029Z,5.15
2018-12-05T10:32:05.086Z,5.27
2018-12-05T10:33:04.007Z,5.31
2018-12-05T10:34:03.991Z,5.25
2018-12-05T10:35:04.009Z,5.27
2018-12-05T10:36:03.973Z,5.25
2018-12-05T10:37:03.979Z,5.36
2018-12-05T10:38:03.955Z,5.43
2018-12-05T10:39:03.950Z,5.39
2018-12-05T10:40:03.924Z,5.42
2018-12-05T10:41:03.933Z,5.46
2018-12-05T10:42:03.927Z,5.49
2018-12-05T10:43:03.913Z,5.48
2018-12-05T10:44:03.893Z,5.39
2018-12-05T10:45:03.873Z,5.49
2018-12-05T10:46:03.860Z,5.49
2018-12-05T10:47:03.874Z,5.49
2018-12-05T10:48:03.843Z,5.49
2018-12-05T10:49:03.828Z,5.57
2018-12-05T10:50:03.824Z,5.56
2018-12-05T10:51:03.811Z,5.56
2018-12-05T10:52:03.826Z,5.65
2018-12-05T10:53:03.785Z,5.65
2018-12-05T10:54:03.789Z,5.57
2018-12-05T10:55:03.768Z,5.67
2018-12-05T10:56:03.760Z,5.78
2018-12-05T10:57:03.780Z,5.72
2018-12-05T10:58:03.738Z,5.74
2018-12-05T10:59:03.722Z,5.75
2018-12-05T11:00:03.724Z,5.78
2018-12-05T11:01:03.702Z,5.79
2018-12-05T11:02:03.703Z,5.86
2018-12-05T11:03:03.683Z,6.01
2018-12-05T11:04:03.671Z,5.93
2018-12-05T11:05:03.669Z,6.08
2018-12-05T11:06:03.664Z,6.36
2018-12-05T11:07:03.655Z,6.80
2018-12-05T11:08:03.631Z,7.58
2018-12-05T11:09:03.698Z,8.19
2018-12-05T11:10:03.608Z,8.95
2018-12-05T11:11:03.600Z,9.48
2018-12-05T11:12:03.603Z,9.86
2018-12-05T11:13:03.572Z,10.17
2018-12-05T11:14:03.570Z,10.44
2018-12-05T11:15:03.600Z,10.63
2018-12-05T11:16:03.546Z,10.47
2018-12-05T11:17:03.548Z,10.56
2018-12-05T11:18:03.515Z,11.06
2018-12-05T11:19:03.510Z,11.54
2018-12-05T11:20:03.510Z,11.57
2018-12-05T11:21:03.484Z,11.40
2018-12-05T11:22:03.490Z,11.21
2018-12-05T11:23:03.487Z,11.35
2018-12-05T11:24:03.469Z,11.57
2018-12-05T11:25:03.456Z,11.61
2018-12-05T11:26:03.432Z,12.24
2018-12-05T11:27:03.429Z,12.85
2018-12-05T11:28:03.434Z,13.36
2018-12-05T11:29:03.398Z,13.84
2018-12-05T11:30:03.386Z,14.06
2018-12-05T11:31:03.376Z,14.21
2018-12-05T11:32:03.374Z,14.54
2018-12-05T11:33:03.372Z,14.61
2018-12-05T11:34:03.355Z,14.69
2018-12-05T11:35:03.339Z,14.42
2018-12-05T11:36:03.324Z,14.02
2018-12-05T11:37:03.312Z,13.46
2018-12-05T11:38:03.326Z,13.57
2018-12-05T11:39:03.294Z,13.89
2018-12-05T11:40:03.290Z,13.73
2018-12-05T11:41:03.270Z,14.21
2018-12-05T11:42:03.267Z,14.80
2018-12-05T11:43:03.269Z,14.92
2018-12-05T11:44:03.241Z,15.13
2018-12-05T11:45:03.239Z,15.43
2018-12-05T11:46:03.222Z,15.80
2018-12-05T11:47:03.211Z,15.82
2018-12-05T11:48:03.244Z,15.76
2018-12-05T11:49:03.187Z,15.72
2018-12-05T11:50:03.193Z,15.62
2018-12-05T11:51:03.170Z,15.74
2018-12-05T11:52:03.165Z,15.60
2018-12-05T11:53:03.173Z,15.93
2018-12-05T11:54:03.136Z,16.15
2018-12-05T11:55:03.127Z,16.28
2018-12-05T11:56:03.152Z,16.21
2018-12-05T11:57:03.105Z,16.02
2018-12-05T11:58:03.107Z,16.30
2018-12-05T11:59:03.084Z,16.24
2018-12-05T12:00:03.068Z,16.17
2018-12-05T12:01:03.064Z,15.93
2018-12-05T12:02:03.047Z,15.68
2018-12-05T12:03:03.049Z,15.60
2018-12-05T12:04:03.031Z,15.69
2018-12-05T12:05:03.013Z,15.49
2018-12-05T12:06:03.013Z,15.03
2018-12-05T12:07:03.001Z,15.23
2018-12-05T12:08:03.016Z,15.35
2018-12-05T12:09:02.981Z,15.56
2018-12-05T12:10:02.958Z,15.60
2018-12-05T12:11:02.945Z,15.56
2018-12-05T12:12:02.935Z,15.43
2018-12-05T12:13:02.927Z,14.88
2018-12-05T12:14:02.975Z,14.21
2018-12-05T12:15:02.915Z,13.62
2018-12-05T12:16:02.901Z,13.45
2018-12-05T12:17:02.885Z,13.32
2018-12-05T12:18:02.884Z,13.25
2018-12-05T12:19:02.886Z,13.04
2018-12-05T12:20:02.853Z,13.12
2018-12-05T12:21:02.839Z,13.05
2018-12-05T12:22:02.833Z,12.70
2018-12-05T12:23:02.821Z,12.77
2018-12-05T12:24:02.835Z,12.52
2018-12-05T12:25:02.800Z,12.46
2018-12-05T12:26:02.793Z,12.82
2018-12-05T12:27:02.777Z,13.01
2018-12-05T12:28:02.767Z,12.87
2018-12-05T12:29:02.769Z,12.87
2018-12-05T12:30:02.756Z,12.21
2018-12-05T12:31:02.739Z,11.65
2018-12-05T12:32:02.732Z,11.32
2018-12-05T12:33:02.970Z,11.36
2018-12-05T12:34:02.718Z,11.51
2018-12-05T12:35:02.706Z,11.49
2018-12-05T12:36:02.683Z,11.57
2018-12-05T12:37:02.687Z,11.65
2018-12-05T12:38:02.657Z,11.49
2018-12-05T12:39:02.674Z,11.33
2018-12-05T12:40:02.647Z,10.94
2018-12-05T12:41:02.625Z,10.97
2018-12-05T12:42:02.615Z,11.07
2018-12-05T12:43:02.609Z,11.07
2018-12-05T12:44:02.610Z,10.74
2018-12-05T12:45:02.591Z,10.14
2018-12-05T12:46:02.571Z,9.65
2018-12-05T12:47:02.563Z,9.17
2018-12-05T12:48:02.573Z,8.61
2018-12-05T12:49:02.562Z,8.28
2018-12-05T12:50:02.527Z,8.20
2018-12-05T12:51:02.531Z,8.08
2018-12-05T12:52:02.507Z,8.00
2018-12-05T12:53:02.498Z,7.92
2018-12-05T12:54:02.606Z,7.85
2018-12-05T12:55:02.494Z,7.71
2018-12-05T12:56:02.465Z,7.72
2018-12-05T12:57:02.454Z,7.60
2018-12-05T12:58:02.443Z,7.50
2018-12-05T12:59:02.434Z,7.40
2018-12-05T13:00:02.435Z,7.46
2018-12-05T13:01:02.411Z,7.32
2018-12-05T13:02:02.399Z,7.28
2018-12-05T13:03:02.401Z,7.28
2018-12-05T13:04:02.379Z,7.20
2018-12-05T13:05:02.448Z,7.13
2018-12-05T13:06:02.373Z,7.17
2018-12-05T13:07:02.355Z,7.16
2018-12-05T13:08:02.339Z,7.16
2018-12-05T13:09:02.327Z,7.05
2018-12-05T13:10:02.342Z,7.06
2018-12-05T13:11:02.304Z,6.98
2018-12-05T13:12:02.301Z,7.02
2018-12-05T13:13:02.281Z,6.98
2018-12-05T13:14:02.275Z,6.94
2018-12-05T13:15:02.290Z,6.88
2018-12-05T13:16:02.255Z,6.77